createdAt,value
2023-05-16T00:02:21.064Z,7.10
2023-05-16T00:06:39.152Z,8.93
2023-05-16T00:10:57.193Z,8.48
2023-05-16T00:15:15.427Z,8.75
2023-05-16T00:19:33.526Z,7.90
2023-05-16T00:23:51.693Z,8.77
2023-05-16T00:27:14.213Z,8.73
2023-05-16T00:33:23.492Z,15.50
2023-05-16T00:36:29.856Z,17.20
2023-05-16T00:39:33.891Z,23.88
2023-05-16T00:42:37.958Z,9.38
2023-05-16T00:45:41.927Z,19.43
2023-05-16T00:48:46.035Z,13.75
2023-05-16T00:51:50.824Z,10.18
2023-05-16T00:54:55.350Z,11.38
2023-05-16T00:58:00.725Z,12.32
2023-05-16T01:01:05.902Z,10.73
2023-05-16T01:04:10.244Z,8.60
2023-05-16T01:07:14.501Z,7.13
2023-05-16T01:10:18.760Z,6.90
2023-05-16T01:13:33.154Z,6.43
2023-05-16T01:17:11.095Z,11.90
2023-05-16T01:20:27.580Z,10.32
2023-05-16T01:24:01.507Z,12.68
2023-05-16T01:27:07.151Z,12.18
2023-05-16T01:30:19.926Z,12.05
2023-05-16T01:33:24.117Z,14.77
2023-05-16T01:36:34.581Z,11.00
2023-05-16T01:39:55.592Z,22.00
2023-05-16T01:43:05.892Z,14.15
2023-05-16T01:46:17.514Z,15.20
2023-05-16T01:49:47.778Z,17.73
2023-05-16T01:53:00.850Z,20.08
2023-05-16T01:56:06.624Z,11.25
2023-05-16T01:59:13.356Z,16.65
2023-05-16T02:02:20.327Z,16.70
2023-05-16T02:05:24.819Z,15.38
2023-05-16T02:08:30.238Z,16.77
2023-05-16T02:14:38.013Z,16.08
2023-05-16T02:20:46.802Z,11.20
2023-05-16T02:23:52.966Z,10.18
2023-05-16T02:26:56.945Z,14.77
2023-05-16T02:30:00.978Z,13.75
2023-05-16T02:33:09.009Z,14.45
2023-05-16T02:36:13.038Z,12.33
2023-05-16T02:39:19.697Z,14.60
2023-05-16T02:42:23.423Z,16.48
2023-05-16T02:45:27.993Z,15.77
2023-05-16T02:48:32.732Z,23.15
2023-05-16T02:51:37.372Z,15.10
2023-05-16T02:54:41.962Z,18.65
2023-05-16T02:57:46.736Z,18.13
2023-05-16T03:00:50.638Z,14.73
2023-05-16T03:03:54.915Z,15.07
2023-05-16T03:07:00.145Z,14.75
2023-05-16T03:10:05.001Z,15.82
2023-05-16T03:13:08.776Z,23.40
2023-05-16T03:16:13.058Z,10.27
2023-05-16T03:19:17.230Z,13.32
2023-05-16T03:22:21.449Z,11.43
2023-05-16T03:25:25.629Z,15.30
2023-05-16T03:28:29.779Z,14.52
2023-05-16T03:31:34.719Z,14.40
2023-05-16T03:34:39.242Z,16.88
2023-05-16T03:37:43.585Z,16.33
2023-05-16T03:40:47.557Z,16.55
2023-05-16T03:43:51.334Z,23.25
2023-05-16T03:46:56.859Z,12.18
2023-05-16T03:53:05.744Z,16.27
2023-05-16T03:59:14.408Z,16.35
2023-05-16T04:02:19.072Z,15.33
2023-05-16T04:05:23.225Z,20.70
2023-05-16T04:08:27.927Z,17.10
2023-05-16T04:11:31.829Z,22.23
2023-05-16T04:14:36.774Z,21.08
2023-05-16T04:17:41.047Z,17.63
2023-05-16T04:20:45.469Z,24.05
2023-05-16T04:23:49.667Z,17.52
2023-05-16T04:26:53.791Z,18.92
2023-05-16T04:29:57.965Z,18.85
2023-05-16T04:33:02.223Z,19.90
2023-05-16T04:36:06.886Z,21.25
2023-05-16T04:39:10.957Z,18.92
2023-05-16T04:42:14.814Z,17.60
2023-05-16T04:45:18.851Z,23.77
2023-05-16T04:48:23.024Z,19.48
2023-05-16T04:51:27.433Z,21.25
2023-05-16T04:54:31.620Z,21.15
2023-05-16T04:57:35.638Z,21.13
2023-05-16T05:00:40.647Z,21.23
2023-05-16T05:04:04.867Z,25.60
2023-05-16T05:07:12.109Z,25.85
2023-05-16T05:10:19.534Z,22.55
2023-05-16T05:13:24.911Z,24.30
2023-05-16T05:16:28.938Z,27.45
2023-05-16T05:19:32.935Z,25.00
2023-05-16T05:22:39.460Z,25.92
2023-05-16T05:25:48.898Z,25.27
2023-05-16T05:29:04.510Z,27.13
2023-05-16T05:32:09.359Z,19.23
2023-05-16T05:35:13.991Z,14.15
2023-05-16T05:38:17.844Z,10.87
2023-05-16T05:41:30.563Z,12.77
2023-05-16T05:44:38.578Z,11.23
2023-05-16T05:47:45.533Z,13.75
2023-05-16T05:50:49.704Z,14.48
2023-05-16T05:53:56.963Z,14.65
2023-05-16T05:57:04.269Z,14.27
2023-05-16T06:00:14.604Z,12.73
2023-05-16T06:03:18.740Z,14.93
2023-05-16T06:06:23.299Z,20.08
2023-05-16T06:09:29.686Z,15.27
2023-05-16T06:12:33.923Z,15.63
2023-05-16T06:15:38.105Z,16.80
2023-05-16T06:18:41.964Z,23.40
2023-05-16T06:21:48.945Z,24.02
2023-05-16T06:24:52.798Z,18.17
2023-05-16T06:27:56.925Z,17.77
2023-05-16T06:31:02.740Z,18.15
2023-05-16T06:34:08.042Z,19.38
2023-05-16T06:37:15.123Z,15.60
2023-05-16T06:40:21.407Z,16.63
2023-05-16T06:43:25.467Z,14.13
2023-05-16T06:46:34.225Z,14.93
2023-05-16T06:49:38.294Z,17.80
2023-05-16T06:52:43.096Z,17.60
2023-05-16T06:55:47.852Z,27.92
2023-05-16T06:58:59.407Z,21.88
2023-05-16T07:02:08.486Z,18.17
2023-05-16T07:05:13.191Z,24.40
2023-05-16T07:08:17.439Z,16.90
2023-05-16T07:11:22.875Z,17.92
2023-05-16T07:14:27.071Z,23.20
2023-05-16T07:17:34.320Z,15.88
2023-05-16T07:20:38.681Z,15.55
2023-05-16T07:23:42.679Z,13.13
2023-05-16T07:26:49.873Z,42.67
2023-05-16T07:29:54.743Z,41.05
2023-05-16T07:32:59.141Z,12.57
2023-05-16T07:36:15.525Z,13.20
2023-05-16T07:39:21.396Z,13.27
2023-05-16T07:42:26.209Z,13.75
2023-05-16T07:45:30.682Z,15.75
2023-05-16T07:48:35.571Z,12.17
2023-05-16T07:51:40.819Z,14.23
2023-05-16T07:54:50.719Z,21.80
2023-05-16T07:57:57.643Z,16.63
2023-05-16T08:01:01.952Z,13.57
2023-05-16T08:04:06.302Z,15.55
2023-05-16T08:07:14.289Z,11.90
2023-05-16T08:10:18.351Z,14.13
2023-05-16T08:13:22.986Z,17.40
2023-05-16T08:16:30.089Z,23.55
2023-05-16T08:19:36.771Z,12.82
2023-05-16T08:22:41.823Z,12.98
2023-05-16T08:25:48.119Z,19.10
2023-05-16T08:28:55.249Z,15.90
2023-05-16T08:32:00.273Z,14.98
2023-05-16T08:35:07.967Z,10.68
2023-05-16T08:38:12.308Z,11.85
2023-05-16T08:41:17.732Z,22.60
2023-05-16T08:44:27.767Z,23.70
2023-05-16T08:47:33.100Z,25.35
2023-05-16T08:50:43.923Z,33.50
2023-05-16T08:54:01.352Z,23.42
2023-05-16T08:57:14.093Z,22.70
2023-05-16T09:00:20.244Z,21.08
2023-05-16T09:03:26.193Z,18.35
2023-05-16T09:06:31.592Z,17.75
2023-05-16T09:09:35.418Z,20.05
2023-05-16T09:12:57.053Z,15.48
2023-05-16T09:16:20.506Z,16.33
2023-05-16T09:19:26.704Z,39.95
2023-05-16T09:22:30.677Z,29.08
2023-05-16T09:25:34.860Z,19.10
2023-05-16T09:28:45.172Z,16.83
2023-05-16T09:31:51.272Z,16.65
2023-05-16T09:34:59.726Z,14.23
2023-05-16T09:38:03.569Z,15.73
2023-05-16T09:41:07.862Z,18.23
2023-05-16T09:44:14.191Z,14.20
2023-05-16T09:47:23.403Z,15.52
2023-05-16T09:50:30.489Z,13.60
2023-05-16T09:53:34.936Z,16.20
2023-05-16T09:56:52.500Z,16.33
2023-05-16T09:59:56.685Z,16.58
2023-05-16T10:03:05.687Z,18.45
2023-05-16T10:06:13.413Z,16.52
2023-05-16T10:09:20.340Z,19.80
2023-05-16T10:12:32.977Z,19.15
2023-05-16T10:15:43.654Z,22.58
2023-05-16T10:18:48.953Z,19.75
2023-05-16T10:21:55.893Z,18.70
2023-05-16T10:25:13.917Z,16.52
2023-05-16T10:28:20.575Z,27.05
2023-05-16T10:31:27.415Z,23.00
2023-05-16T10:34:32.000Z,42.10
2023-05-16T10:37:37.752Z,122.50
2023-05-16T10:40:42.733Z,51.47
2023-05-16T10:44:00.796Z,31.25
2023-05-16T10:47:07.460Z,31.48
2023-05-16T10:50:11.895Z,24.20
2023-05-16T10:53:31.574Z,32.88
2023-05-16T10:56:39.168Z,25.80
2023-05-16T10:59:49.117Z,22.45
2023-05-16T11:02:53.386Z,16.30
2023-05-16T11:06:02.300Z,12.20
2023-05-16T11:09:12.541Z,10.20
2023-05-16T11:12:16.878Z,11.32
2023-05-16T11:15:32.483Z,10.65
2023-05-16T11:18:53.464Z,9.98
2023-05-16T11:22:19.040Z,11.07
2023-05-16T11:25:42.123Z,10.00
2023-05-16T11:28:51.203Z,10.20
2023-05-16T11:31:55.526Z,9.10
2023-05-16T11:34:59.620Z,9.48
2023-05-16T11:38:04.677Z,11.75
2023-05-16T11:41:17.421Z,8.27
2023-05-16T11:44:21.396Z,8.63
2023-05-16T11:47:26.152Z,7.35
2023-05-16T11:50:35.137Z,9.70
2023-05-16T11:53:39.479Z,9.85
2023-05-16T11:56:45.724Z,10.90
2023-05-16T11:59:54.322Z,10.10
2023-05-16T12:03:06.872Z,13.02
2023-05-16T12:06:11.110Z,9.45
2023-05-16T12:09:18.938Z,9.55
2023-05-16T12:12:23.462Z,9.38
2023-05-16T12:15:31.200Z,11.25
2023-05-16T12:18:41.937Z,13.80
2023-05-16T12:21:56.740Z,12.80
2023-05-16T12:25:01.304Z,11.23
2023-05-16T12:28:09.334Z,11.00
2023-05-16T12:31:31.032Z,12.82
2023-05-16T12:34:36.483Z,14.85
2023-05-16T12:37:52.513Z,15.40
2023-05-16T12:41:00.156Z,11.48
2023-05-16T12:44:18.107Z,18.48
2023-05-16T12:47:23.734Z,9.48
2023-05-16T12:50:28.214Z,9.80
2023-05-16T12:53:57.609Z,13.10
2023-05-16T12:57:11.177Z,8.82
2023-05-16T13:00:20.826Z,11.88
2023-05-16T13:03:26.002Z,12.38
2023-05-16T13:06:44.833Z,10.65
2023-05-16T13:09:57.640Z,12.38
2023-05-16T13:13:03.307Z,12.60
2023-05-16T13:16:16.832Z,9.60
2023-05-16T13:19:21.261Z,9.35
2023-05-16T13:22:28.575Z,12.63
2023-05-16T13:25:36.468Z,10.98
2023-05-16T13:28:41.689Z,14.38
2023-05-16T13:31:45.722Z,12.85
2023-05-16T13:34:51.885Z,13.45
2023-05-16T13:38:00.268Z,10.18
2023-05-16T13:41:04.251Z,15.15
2023-05-16T13:44:10.944Z,11.13
2023-05-16T13:47:15.865Z,13.18
2023-05-16T13:50:20.097Z,10.30
2023-05-16T13:53:24.323Z,10.98
2023-05-16T13:56:28.330Z,17.20
2023-05-16T13:59:56.800Z,11.00
2023-05-16T14:02:57.854Z,10.02
2023-05-16T14:09:07.295Z,13.10
2023-05-16T14:12:11.573Z,10.95
2023-05-16T14:15:16.039Z,10.57
2023-05-16T14:18:20.175Z,20.95
2023-05-16T14:21:24.086Z,15.68
2023-05-16T14:24:28.364Z,14.23
2023-05-16T14:27:35.798Z,11.82
2023-05-16T14:30:40.678Z,13.10
2023-05-16T14:33:48.431Z,14.90
2023-05-16T14:36:52.452Z,16.90
2023-05-16T14:39:57.963Z,13.27
2023-05-16T14:43:04.798Z,16.83
2023-05-16T14:46:08.853Z,13.57
2023-05-16T14:49:16.784Z,14.27
2023-05-16T14:52:21.222Z,14.73
2023-05-16T14:55:25.425Z,12.88
2023-05-16T14:58:29.945Z,11.77
2023-05-16T15:01:34.116Z,11.82
2023-05-16T15:07:49.106Z,12.02
2023-05-16T15:10:53.245Z,12.50
2023-05-16T15:13:58.212Z,11.75
2023-05-16T15:17:09.168Z,18.63
2023-05-16T15:20:16.838Z,17.00
2023-05-16T15:23:21.012Z,14.15
2023-05-16T15:26:25.587Z,13.38
2023-05-16T15:29:29.592Z,14.20
2023-05-16T15:32:34.126Z,12.85
2023-05-16T15:35:38.384Z,12.37
2023-05-16T15:38:45.328Z,14.70
2023-05-16T15:42:05.726Z,14.85
2023-05-16T15:45:13.773Z,14.85
2023-05-16T15:48:17.713Z,13.33
2023-05-16T15:51:22.227Z,17.05
2023-05-16T15:54:26.297Z,14.63
2023-05-16T15:57:31.176Z,14.27
2023-05-16T16:00:36.026Z,13.65
2023-05-16T16:03:40.525Z,15.65
2023-05-16T16:06:44.782Z,17.15
2023-05-16T16:09:48.936Z,16.55
2023-05-16T16:13:06.193Z,13.57
2023-05-16T16:16:10.484Z,15.38
2023-05-16T16:19:14.875Z,11.82
2023-05-16T16:22:20.971Z,12.05
2023-05-16T16:25:27.206Z,13.48
2023-05-16T16:28:31.548Z,10.57
2023-05-16T16:31:35.870Z,13.77
2023-05-16T16:34:40.421Z,13.18
2023-05-16T16:37:51.626Z,12.40
2023-05-16T16:41:08.775Z,10.80
2023-05-16T16:44:13.113Z,12.10
2023-05-16T16:47:17.816Z,11.27
2023-05-16T16:50:22.229Z,8.70
2023-05-16T16:53:27.412Z,9.20
2023-05-16T16:56:31.551Z,11.00
2023-05-16T16:59:36.243Z,9.20
2023-05-16T17:02:40.940Z,8.73
2023-05-16T17:05:45.784Z,8.60
2023-05-16T17:08:50.441Z,8.18
2023-05-16T17:11:54.659Z,10.00
2023-05-16T17:14:58.989Z,6.57
2023-05-16T17:18:03.117Z,8.77
2023-05-16T17:21:09.356Z,6.95
2023-05-16T17:24:13.975Z,8.32
2023-05-16T17:27:18.875Z,7.13
2023-05-16T17:30:23.199Z,8.77
2023-05-16T17:33:27.573Z,6.07
2023-05-16T17:36:32.493Z,6.97
2023-05-16T17:39:40.580Z,4.47
2023-05-16T17:42:45.769Z,6.55
2023-05-16T17:45:50.084Z,4.88
2023-05-16T17:48:54.132Z,4.03
2023-05-16T17:51:59.009Z,4.75
2023-05-16T17:55:03.291Z,5.47
2023-05-16T17:58:10.601Z,5.22
2023-05-16T18:01:14.581Z,5.53
2023-05-16T18:04:21.823Z,5.07
2023-05-16T18:07:27.865Z,7.03
2023-05-16T18:10:51.060Z,5.32
2023-05-16T18:13:56.527Z,4.97
2023-05-16T18:17:00.516Z,9.35
2023-05-16T18:20:17.314Z,5.97
2023-05-16T18:23:22.266Z,10.90
2023-05-16T18:26:30.292Z,7.43
2023-05-16T18:29:35.209Z,8.00
2023-05-16T18:32:39.385Z,5.63
2023-05-16T18:35:43.729Z,6.40
2023-05-16T18:38:50.025Z,8.15
2023-05-16T18:41:54.623Z,8.63
2023-05-16T18:44:58.859Z,7.75
2023-05-16T18:48:03.077Z,10.02
2023-05-16T18:51:07.332Z,6.95
2023-05-16T18:54:11.385Z,7.90
2023-05-16T18:57:15.627Z,9.02
2023-05-16T19:00:21.054Z,10.05
2023-05-16T19:03:25.364Z,10.07
2023-05-16T19:06:31.974Z,9.70
2023-05-16T19:09:36.685Z,8.93
2023-05-16T19:12:41.005Z,11.47
2023-05-16T19:15:45.040Z,8.02
2023-05-16T19:18:49.073Z,10.30
2023-05-16T19:21:53.191Z,9.20
2023-05-16T19:24:57.297Z,9.13
2023-05-16T19:28:01.276Z,10.55
2023-05-16T19:31:09.010Z,10.93
2023-05-16T19:34:14.435Z,11.10
2023-05-16T19:37:18.619Z,9.73
2023-05-16T19:40:22.703Z,11.70
2023-05-16T19:43:32.578Z,9.27
2023-05-16T19:46:39.220Z,9.32
2023-05-16T19:49:43.381Z,10.23
2023-05-16T19:52:47.378Z,12.07
2023-05-16T19:55:51.587Z,16.02
2023-05-16T19:58:55.461Z,9.80
2023-05-16T20:02:05.174Z,15.63
2023-05-16T20:05:09.554Z,9.85
2023-05-16T20:08:22.857Z,9.40
2023-05-16T20:11:29.711Z,12.48
2023-05-16T20:14:37.164Z,11.00
2023-05-16T20:17:42.194Z,11.55
2023-05-16T20:20:48.864Z,11.65
2023-05-16T20:23:58.091Z,12.38
2023-05-16T20:27:02.488Z,12.48
2023-05-16T20:30:10.092Z,10.68
2023-05-16T20:33:14.642Z,8.70
2023-05-16T20:36:18.634Z,11.57
2023-05-16T20:39:30.006Z,8.93
2023-05-16T20:42:37.077Z,11.02
2023-05-16T20:45:43.816Z,15.33
2023-05-16T20:48:48.372Z,12.07
2023-05-16T20:51:52.376Z,16.17
2023-05-16T20:54:58.958Z,18.92
2023-05-16T20:58:02.896Z,19.42
2023-05-16T21:01:06.897Z,19.17
2023-05-16T21:04:11.236Z,16.25
2023-05-16T21:10:38.705Z,14.60
2023-05-16T21:13:42.746Z,11.05
2023-05-16T21:16:46.974Z,14.27
2023-05-16T21:19:51.348Z,11.25
2023-05-16T21:22:55.122Z,12.40
2023-05-16T21:25:59.187Z,9.75
2023-05-16T21:29:06.217Z,10.90
2023-05-16T21:32:11.200Z,10.43
2023-05-16T21:35:15.946Z,9.27
2023-05-16T21:38:19.949Z,11.25
2023-05-16T21:41:24.219Z,10.35
2023-05-16T21:44:28.425Z,10.85
2023-05-16T21:47:32.976Z,11.18
2023-05-16T21:50:52.302Z,9.67
2023-05-16T21:54:03.983Z,12.15
2023-05-16T21:57:08.216Z,13.93
2023-05-16T22:00:13.300Z,10.18
2023-05-16T22:03:20.315Z,16.70
2023-05-16T22:06:25.429Z,11.40
2023-05-16T22:09:29.411Z,10.25
2023-05-16T22:12:36.555Z,11.48
2023-05-16T22:15:46.693Z,13.82
2023-05-16T22:18:56.392Z,11.70
2023-05-16T22:22:00.433Z,13.77
2023-05-16T22:25:08.372Z,16.17
2023-05-16T22:28:12.355Z,13.27
2023-05-16T22:31:16.488Z,19.00
2023-05-16T22:34:23.673Z,12.55
2023-05-16T22:37:27.760Z,13.32
2023-05-16T22:40:31.836Z,13.10
2023-05-16T22:43:35.710Z,12.82
2023-05-16T22:46:39.811Z,12.98
2023-05-16T22:49:43.938Z,12.07
2023-05-16T22:52:56.965Z,16.88
2023-05-16T22:56:00.861Z,12.23
2023-05-16T22:59:04.940Z,11.82
2023-05-16T23:02:08.756Z,12.45
2023-05-16T23:05:12.868Z,15.38
2023-05-16T23:08:21.731Z,10.82
2023-05-16T23:11:25.890Z,11.10
2023-05-16T23:14:29.915Z,13.20
2023-05-16T23:17:34.057Z,14.75
2023-05-16T23:20:40.999Z,11.43
2023-05-16T23:23:44.979Z,11.70
2023-05-16T23:26:49.095Z,11.13
2023-05-16T23:29:53.897Z,14.65
2023-05-16T23:32:58.114Z,14.57
2023-05-16T23:36:06.902Z,9.77
2023-05-16T23:39:23.431Z,8.82
2023-05-16T23:42:28.106Z,11.65
2023-05-16T23:45:32.936Z,21.42
2023-05-16T23:48:40.721Z,11.60
2023-05-16T23:54:57.431Z,12.40
2023-05-16T23:58:01.794Z,17.25
